createdAt,value
2022-08-27T00:00:15.748Z,89.80
2022-08-27T00:03:03.293Z,89.50
2022-08-27T00:05:37.066Z,89.80
2022-08-27T00:08:05.997Z,89.70
2022-08-27T00:10:35.588Z,89.20
2022-08-27T00:13:06.366Z,89.60
2022-08-27T00:15:36.213Z,90.10
2022-08-27T00:18:11.062Z,90.00
2022-08-27T00:20:40.562Z,90.00
2022-08-27T00:23:07.690Z,89.70
2022-08-27T00:25:37.262Z,89.20
2022-08-27T00:28:04.562Z,89.10
2022-08-27T00:30:39.894Z,89.50
2022-08-27T00:33:12.250Z,89.00
2022-08-27T00:35:42.021Z,89.80
2022-08-27T00:38:14.521Z,90.60
2022-08-27T00:40:42.284Z,91.40
2022-08-27T00:43:09.786Z,91.30
2022-08-27T00:45:45.351Z,91.00
2022-08-27T00:48:24.289Z,90.80
2022-08-27T00:50:55.499Z,90.90
2022-08-27T00:53:33.242Z,91.10
2022-08-27T00:56:11.106Z,90.70
2022-08-27T00:58:44.116Z,90.70
2022-08-27T01:01:18.530Z,90.60
2022-08-27T01:03:51.325Z,90.80
2022-08-27T01:06:20.604Z,90.50
2022-08-27T01:08:55.072Z,90.60
2022-08-27T01:11:23.491Z,90.50
2022-08-27T01:13:59.766Z,90.50
2022-08-27T01:16:36.711Z,90.40
2022-08-27T01:19:09.728Z,90.70
2022-08-27T01:21:51.425Z,90.60
2022-08-27T01:24:45.709Z,90.40
2022-08-27T01:27:20.230Z,90.20
2022-08-27T01:29:52.537Z,90.50
2022-08-27T01:32:33.301Z,90.60
2022-08-27T01:35:02.517Z,90.60
2022-08-27T01:37:30.147Z,90.50
2022-08-27T01:40:00.621Z,90.10
2022-08-27T01:42:39.461Z,91.10
2022-08-27T01:45:08.282Z,91.00
2022-08-27T01:47:40.854Z,91.10
2022-08-27T01:50:35.987Z,90.60
2022-08-27T01:53:21.441Z,91.00
2022-08-27T01:55:56.946Z,91.60
2022-08-27T01:58:30.413Z,91.40
2022-08-27T02:01:07.174Z,91.30
2022-08-27T02:03:40.088Z,91.50
2022-08-27T02:06:15.260Z,91.60
2022-08-27T02:08:45.175Z,92.40
2022-08-27T02:11:12.507Z,92.20
2022-08-27T02:13:39.661Z,92.90
2022-08-27T02:16:10.051Z,93.50
2022-08-27T02:18:41.741Z,93.40
2022-08-27T02:21:12.951Z,94.80
2022-08-27T02:23:42.638Z,94.10
2022-08-27T02:26:12.876Z,94.20
2022-08-27T02:28:45.984Z,94.80
2022-08-27T02:31:18.290Z,95.40
2022-08-27T02:33:48.905Z,94.80
2022-08-27T02:36:17.972Z,95.70
2022-08-27T02:38:45.295Z,96.10
2022-08-27T02:41:16.861Z,96.20
2022-08-27T02:43:46.967Z,96.30
2022-08-27T02:46:21.414Z,96.50
2022-08-27T02:48:48.869Z,96.40
2022-08-27T02:51:18.271Z,95.50
2022-08-27T02:53:52.197Z,95.50
2022-08-27T02:56:22.035Z,96.80
2022-08-27T02:58:49.677Z,96.90
2022-08-27T03:01:19.617Z,97.10
2022-08-27T03:03:49.234Z,96.50
2022-08-27T03:06:23.961Z,96.70
2022-08-27T03:08:55.914Z,96.90
2022-08-27T03:11:27.780Z,96.40
2022-08-27T03:13:58.737Z,96.80
2022-08-27T03:16:26.628Z,96.30
2022-08-27T03:18:56.384Z,95.60
2022-08-27T03:21:25.332Z,95.80
2022-08-27T03:23:55.055Z,96.30
2022-08-27T03:26:28.124Z,96.90
2022-08-27T03:29:00.405Z,96.90
2022-08-27T03:31:31.232Z,96.50
2022-08-27T03:34:03.882Z,95.90
2022-08-27T03:36:34.249Z,95.30
2022-08-27T03:39:01.421Z,95.80
2022-08-27T03:41:45.602Z,96.30
2022-08-27T03:44:21.952Z,96.00
2022-08-27T03:46:56.438Z,96.50
2022-08-27T03:49:24.133Z,96.50
2022-08-27T03:51:59.056Z,95.90
2022-08-27T03:54:34.265Z,95.70
2022-08-27T03:57:09.172Z,96.40
2022-08-27T03:59:41.629Z,95.90
2022-08-27T04:02:08.878Z,97.10
2022-08-27T04:04:36.241Z,97.50
2022-08-27T04:07:04.144Z,97.10
2022-08-27T04:09:34.618Z,97.10
2022-08-27T04:12:07.150Z,98.00
2022-08-27T04:14:36.983Z,97.80
2022-08-27T04:17:04.616Z,97.20
2022-08-27T04:19:39.020Z,97.30
2022-08-27T04:22:07.975Z,97.30
2022-08-27T04:24:40.781Z,97.20
2022-08-27T04:27:11.131Z,96.80
2022-08-27T04:29:38.285Z,96.40
2022-08-27T04:32:12.569Z,96.00
2022-08-27T04:34:42.230Z,95.80
2022-08-27T04:37:11.806Z,95.80
2022-08-27T04:39:41.374Z,96.20
2022-08-27T04:42:16.485Z,96.60
2022-08-27T04:44:47.613Z,96.10
2022-08-27T04:47:16.736Z,96.70
2022-08-27T04:49:44.012Z,96.20
2022-08-27T04:52:13.798Z,96.00
2022-08-27T04:54:41.512Z,95.50
2022-08-27T04:57:09.364Z,96.50
2022-08-27T04:59:37.409Z,96.20
2022-08-27T05:02:10.849Z,96.30
2022-08-27T05:04:42.686Z,95.80
2022-08-27T05:07:14.932Z,95.10
2022-08-27T05:09:44.402Z,95.20
2022-08-27T05:12:11.629Z,95.20
2022-08-27T05:14:43.713Z,94.70
2022-08-27T05:17:16.023Z,94.40
2022-08-27T05:19:43.258Z,94.50
2022-08-27T05:22:10.378Z,94.20
2022-08-27T05:24:40.073Z,94.20
2022-08-27T05:27:10.186Z,93.90
2022-08-27T05:29:45.227Z,93.50
2022-08-27T05:32:19.272Z,93.10
2022-08-27T05:34:47.062Z,92.70
2022-08-27T05:37:14.265Z,93.00
2022-08-27T05:39:44.000Z,92.60
2022-08-27T05:42:16.317Z,92.40
2022-08-27T05:44:46.260Z,92.70
2022-08-27T05:47:18.877Z,92.50
2022-08-27T05:49:54.241Z,92.80
2022-08-27T05:52:26.532Z,92.60
2022-08-27T05:54:58.447Z,92.70
2022-08-27T05:57:25.787Z,92.70
2022-08-27T06:00:15.597Z,92.30
2022-08-27T06:02:44.200Z,92.40
2022-08-27T06:05:11.686Z,92.30
2022-08-27T06:07:38.914Z,92.40
2022-08-27T06:10:11.329Z,92.40
2022-08-27T06:12:40.957Z,92.70
2022-08-27T06:15:13.677Z,92.40
2022-08-27T06:17:45.840Z,92.30
2022-08-27T06:20:15.784Z,92.30
2022-08-27T06:22:44.771Z,92.30
2022-08-27T06:25:20.080Z,92.30
2022-08-27T06:27:47.294Z,92.50
2022-08-27T06:30:17.609Z,92.60
2022-08-27T06:32:47.564Z,92.70
2022-08-27T06:35:19.448Z,92.60
2022-08-27T06:37:51.993Z,92.60
2022-08-27T06:40:22.699Z,92.40
2022-08-27T06:42:53.192Z,92.80
2022-08-27T06:45:25.775Z,92.40
2022-08-27T06:47:55.899Z,92.40
2022-08-27T06:50:27.503Z,92.30
2022-08-27T06:52:57.152Z,91.90
2022-08-27T06:55:32.195Z,91.70
2022-08-27T06:58:05.194Z,91.60
2022-08-27T07:00:37.380Z,91.60
2022-08-27T07:03:07.181Z,91.30
2022-08-27T07:05:37.525Z,91.50
2022-08-27T07:08:08.473Z,91.00
2022-08-27T07:10:43.202Z,90.70
2022-08-27T07:13:12.694Z,90.80
2022-08-27T07:15:45.542Z,90.60
2022-08-27T07:18:12.939Z,90.50
2022-08-27T07:20:42.842Z,90.30
2022-08-27T07:23:12.401Z,90.20
2022-08-27T07:25:42.228Z,89.30
2022-08-27T07:28:17.350Z,88.80
2022-08-27T07:30:44.712Z,88.50
2022-08-27T07:33:14.401Z,88.70
2022-08-27T07:35:45.847Z,87.50
2022-08-27T07:38:17.809Z,88.40
2022-08-27T07:40:52.711Z,88.10
2022-08-27T07:43:40.797Z,87.10
2022-08-27T07:46:10.515Z,86.50
2022-08-27T07:48:40.181Z,86.00
2022-08-27T07:51:14.334Z,85.90
2022-08-27T07:53:41.733Z,85.40
2022-08-27T07:56:13.936Z,83.90
2022-08-27T07:58:44.276Z,81.60
2022-08-27T08:01:14.300Z,81.60
2022-08-27T08:03:41.673Z,81.90
2022-08-27T08:06:13.889Z,82.00
2022-08-27T08:08:43.886Z,81.80
2022-08-27T08:11:16.744Z,81.80
2022-08-27T08:13:54.056Z,80.80
2022-08-27T08:16:26.273Z,80.80
2022-08-27T08:18:57.349Z,81.10
2022-08-27T08:21:24.448Z,81.00
2022-08-27T08:23:51.853Z,79.80
2022-08-27T08:26:21.827Z,79.20
2022-08-27T08:28:55.893Z,78.70
2022-08-27T08:31:27.477Z,79.00
2022-08-27T08:33:57.209Z,78.80
2022-08-27T08:36:30.057Z,76.70
2022-08-27T08:38:57.194Z,76.00
2022-08-27T08:41:43.559Z,77.20
2022-08-27T08:44:27.613Z,77.10
2022-08-27T08:47:17.077Z,76.30
2022-08-27T08:49:59.749Z,74.90
2022-08-27T08:52:43.601Z,79.40
2022-08-27T08:55:19.434Z,80.00
2022-08-27T08:57:56.333Z,76.70
2022-08-27T09:00:29.132Z,74.70
2022-08-27T09:03:00.908Z,74.10
2022-08-27T09:05:28.552Z,82.20
2022-08-27T09:08:36.516Z,79.50
2022-08-27T09:11:30.096Z,75.70
2022-08-27T09:14:02.287Z,78.80
2022-08-27T09:16:32.757Z,71.10
2022-08-27T09:19:05.930Z,68.60
2022-08-27T09:21:56.653Z,69.80
2022-08-27T09:24:34.107Z,69.50
2022-08-27T09:27:04.276Z,66.60
2022-08-27T09:29:38.697Z,66.90
2022-08-27T09:32:11.797Z,68.50
2022-08-27T09:34:44.800Z,68.30
2022-08-27T09:37:15.817Z,68.20
2022-08-27T09:39:48.805Z,66.70
2022-08-27T09:42:36.129Z,67.30
2022-08-27T09:45:11.923Z,67.20
2022-08-27T09:47:51.430Z,66.30
2022-08-27T09:50:22.272Z,67.00
2022-08-27T09:52:55.454Z,66.50
2022-08-27T09:55:44.965Z,66.80
2022-08-27T09:58:36.877Z,65.70
2022-08-27T10:01:30.800Z,65.10
2022-08-27T10:04:11.733Z,64.60
2022-08-27T10:06:46.474Z,64.10
2022-08-27T10:09:19.042Z,63.70
2022-08-27T10:12:32.013Z,64.40
2022-08-27T10:15:07.590Z,63.10
2022-08-27T10:18:17.689Z,61.70
2022-08-27T10:21:05.824Z,60.70
2022-08-27T10:23:49.081Z,59.70
2022-08-27T10:26:31.853Z,58.30
2022-08-27T10:29:09.832Z,59.60
2022-08-27T10:32:10.209Z,59.80
2022-08-27T10:34:55.499Z,58.50
2022-08-27T10:37:40.557Z,57.40
2022-08-27T10:40:16.163Z,58.00
2022-08-27T10:43:13.949Z,57.20
2022-08-27T10:45:48.364Z,57.30
2022-08-27T10:48:30.832Z,57.40
2022-08-27T10:51:23.319Z,57.40
2022-08-27T10:54:31.357Z,58.50
2022-08-27T10:57:35.331Z,56.80
2022-08-27T11:00:13.374Z,57.20
2022-08-27T11:02:42.639Z,60.40
2022-08-27T11:05:22.072Z,93.60
2022-08-27T11:07:56.670Z,55.50
2022-08-27T11:10:35.419Z,56.80
2022-08-27T11:13:10.714Z,84.80
2022-08-27T11:15:52.301Z,60.80
2022-08-27T11:18:30.221Z,63.20
2022-08-27T11:21:02.989Z,58.20
2022-08-27T11:23:43.580Z,59.00
2022-08-27T11:26:13.706Z,53.50
2022-08-27T11:28:49.771Z,53.20
2022-08-27T11:31:28.637Z,54.10
2022-08-27T11:34:13.208Z,54.60
2022-08-27T11:37:04.765Z,53.80
2022-08-27T11:40:06.143Z,52.30
2022-08-27T11:42:44.432Z,53.80
2022-08-27T11:45:21.265Z,52.80
2022-08-27T11:47:58.133Z,54.30
2022-08-27T11:50:31.340Z,52.80
2022-08-27T11:53:10.740Z,52.50
2022-08-27T11:55:39.677Z,53.00
2022-08-27T11:58:28.209Z,52.30
2022-08-27T12:00:56.998Z,53.40
2022-08-27T12:03:31.134Z,52.50
2022-08-27T12:06:02.401Z,52.50
2022-08-27T12:08:35.307Z,53.00
2022-08-27T12:11:04.946Z,53.20
2022-08-27T12:13:43.974Z,52.30
2022-08-27T12:16:32.243Z,52.70
2022-08-27T12:19:11.913Z,53.20
2022-08-27T12:22:05.833Z,53.50
2022-08-27T12:24:52.041Z,52.30
2022-08-27T12:27:36.614Z,52.90
2022-08-27T12:30:31.039Z,54.00
2022-08-27T12:33:19.248Z,53.70
2022-08-27T12:35:52.490Z,54.30
2022-08-27T12:38:36.113Z,53.70
2022-08-27T12:41:09.335Z,51.60
2022-08-27T12:43:41.570Z,52.20
2022-08-27T12:46:16.097Z,53.80
2022-08-27T12:48:58.057Z,55.10
2022-08-27T12:51:47.429Z,57.30
2022-08-27T12:54:32.598Z,55.40
2022-08-27T12:57:21.629Z,55.90
2022-08-27T13:00:25.497Z,54.50
2022-08-27T13:03:08.934Z,52.90
2022-08-27T13:05:47.456Z,51.00
2022-08-27T13:08:36.057Z,52.20
2022-08-27T13:11:23.502Z,51.60
2022-08-27T13:14:12.211Z,50.80
2022-08-27T13:16:50.481Z,49.60
2022-08-27T13:19:34.258Z,50.50
2022-08-27T13:22:08.721Z,51.60
2022-08-27T13:24:50.280Z,52.50
2022-08-27T13:27:28.595Z,51.20
2022-08-27T13:30:12.013Z,52.30
2022-08-27T13:33:06.433Z,52.80
2022-08-27T13:35:37.721Z,52.30
2022-08-27T13:38:08.051Z,52.60
2022-08-27T13:40:50.315Z,53.50
2022-08-27T13:43:35.429Z,52.40
2022-08-27T13:46:11.127Z,52.60
2022-08-27T13:48:44.065Z,52.50
2022-08-27T13:51:23.751Z,53.70
2022-08-27T13:54:12.063Z,51.90
2022-08-27T13:57:08.836Z,53.10
2022-08-27T13:59:43.624Z,51.80
2022-08-27T14:02:11.402Z,52.10
2022-08-27T14:04:40.654Z,51.30
2022-08-27T14:07:17.527Z,50.60
2022-08-27T14:09:57.055Z,51.20
2022-08-27T14:12:38.142Z,50.60
2022-08-27T14:15:34.958Z,50.40
2022-08-27T14:18:08.393Z,50.10
2022-08-27T14:20:38.379Z,50.10
2022-08-27T14:23:10.899Z,51.40
2022-08-27T14:25:43.421Z,52.40
2022-08-27T14:28:15.466Z,50.70
2022-08-27T14:30:51.037Z,50.90
2022-08-27T14:33:20.802Z,50.90
2022-08-27T14:35:48.221Z,51.50
2022-08-27T14:38:23.392Z,50.70
2022-08-27T14:40:57.725Z,50.90
2022-08-27T14:43:30.511Z,51.90
2022-08-27T14:46:00.432Z,54.20
2022-08-27T14:48:36.380Z,52.50
2022-08-27T14:51:13.202Z,53.00
2022-08-27T14:53:48.137Z,53.50
2022-08-27T14:56:16.075Z,53.30
2022-08-27T14:58:47.057Z,53.30
2022-08-27T15:01:18.497Z,52.50
2022-08-27T15:03:49.689Z,53.60
2022-08-27T15:06:23.520Z,53.70
2022-08-27T15:08:53.804Z,54.70
2022-08-27T15:11:30.153Z,54.00
2022-08-27T15:14:01.635Z,52.70
2022-08-27T15:16:33.581Z,52.30
2022-08-27T15:19:03.548Z,52.90
2022-08-27T15:21:37.613Z,53.00
2022-08-27T15:24:17.063Z,53.60
2022-08-27T15:26:44.958Z,52.80
2022-08-27T15:29:15.419Z,52.80
2022-08-27T15:31:45.886Z,52.70
2022-08-27T15:34:13.952Z,53.20
2022-08-27T15:36:41.460Z,52.40
2022-08-27T15:39:11.767Z,52.60
2022-08-27T15:42:03.065Z,53.30
2022-08-27T15:44:32.378Z,54.40
2022-08-27T15:47:02.010Z,55.80
2022-08-27T15:49:31.400Z,56.40
2022-08-27T15:51:59.545Z,55.10
2022-08-27T15:54:30.596Z,55.10
2022-08-27T15:57:00.182Z,55.50
2022-08-27T15:59:35.435Z,54.90
2022-08-27T16:02:04.606Z,54.90
2022-08-27T16:04:36.617Z,55.40
2022-08-27T16:07:08.212Z,56.20
2022-08-27T16:12:05.620Z,53.90
2022-08-27T16:14:37.330Z,50.50
2022-08-27T16:17:07.478Z,48.80
2022-08-27T16:19:43.495Z,48.00
2022-08-27T16:22:16.398Z,48.70
2022-08-27T16:24:48.207Z,47.60
2022-08-27T16:27:20.550Z,48.50
2022-08-27T16:29:50.951Z,50.80
2022-08-27T16:32:20.817Z,52.10
2022-08-27T16:34:55.406Z,54.20
2022-08-27T16:37:25.842Z,55.00
2022-08-27T16:39:53.536Z,55.90
2022-08-27T16:42:25.554Z,56.30
2022-08-27T16:44:57.930Z,57.50
2022-08-27T16:47:30.200Z,57.30
2022-08-27T16:50:23.028Z,58.00
2022-08-27T16:52:59.906Z,58.90
2022-08-27T16:55:32.770Z,59.50
2022-08-27T16:58:01.047Z,59.70
2022-08-27T17:00:31.229Z,60.40
2022-08-27T17:02:58.661Z,90.00
2022-08-27T17:05:34.021Z,61.00
2022-08-27T17:08:03.395Z,63.80
2022-08-27T17:10:35.863Z,66.20
2022-08-27T17:13:10.915Z,60.90
2022-08-27T17:15:40.784Z,62.50
2022-08-27T17:18:13.227Z,77.50
2022-08-27T17:20:43.190Z,63.10
2022-08-27T17:23:35.086Z,63.10
2022-08-27T17:26:09.346Z,64.60
2022-08-27T17:28:39.863Z,64.30
2022-08-27T17:31:11.979Z,64.40
2022-08-27T17:33:44.699Z,64.50
2022-08-27T17:36:19.826Z,64.80
2022-08-27T17:38:53.858Z,74.20
2022-08-27T17:41:44.181Z,71.50
2022-08-27T17:44:21.947Z,91.00
2022-08-27T17:46:56.913Z,92.10
2022-08-27T17:49:25.548Z,87.70
2022-08-27T17:51:57.988Z,71.20
2022-08-27T17:54:41.590Z,77.60
2022-08-27T17:57:25.004Z,83.30
2022-08-27T17:59:56.376Z,68.30
2022-08-27T18:02:44.148Z,69.00
2022-08-27T18:05:13.394Z,69.90
2022-08-27T18:07:42.019Z,70.30
2022-08-27T18:10:14.920Z,77.40
2022-08-27T18:12:43.209Z,83.00
2022-08-27T18:15:14.573Z,71.30
2022-08-27T18:17:42.585Z,72.00
2022-08-27T18:20:14.600Z,71.80
2022-08-27T18:22:50.369Z,71.40
2022-08-27T18:25:20.410Z,71.00
2022-08-27T18:27:55.035Z,74.20
2022-08-27T18:30:25.536Z,72.10
2022-08-27T18:32:53.042Z,72.10
2022-08-27T18:35:26.931Z,77.90
2022-08-27T18:37:54.845Z,74.80
2022-08-27T18:40:30.445Z,72.00
2022-08-27T18:42:58.662Z,73.30
2022-08-27T18:45:36.992Z,91.60
2022-08-27T18:48:13.386Z,77.20
2022-08-27T18:50:46.613Z,75.30
2022-08-27T18:53:20.213Z,83.10
2022-08-27T18:55:48.813Z,86.90
2022-08-27T18:58:16.776Z,99.70
2022-08-27T19:00:55.704Z,98.40
2022-08-27T19:03:31.213Z,79.10
2022-08-27T19:06:00.755Z,78.90
2022-08-27T19:08:32.675Z,80.60
2022-08-27T19:11:02.677Z,81.00
2022-08-27T19:13:32.102Z,80.70
2022-08-27T19:16:03.555Z,80.60
2022-08-27T19:18:33.754Z,79.80
2022-08-27T19:21:08.152Z,74.60
2022-08-27T19:23:38.638Z,74.00
2022-08-27T19:26:19.623Z,74.80
2022-08-27T19:28:47.242Z,76.00
2022-08-27T19:31:14.984Z,75.40
2022-08-27T19:33:49.405Z,75.20
2022-08-27T19:36:23.099Z,76.30
2022-08-27T19:38:55.210Z,77.90
2022-08-27T19:41:27.743Z,77.10
2022-08-27T19:43:55.436Z,95.70
2022-08-27T19:46:26.454Z,95.00
2022-08-27T19:48:57.906Z,77.90
2022-08-27T19:51:27.343Z,78.60
2022-08-27T19:53:57.080Z,93.10
2022-08-27T19:56:32.706Z,83.20
2022-08-27T19:59:14.513Z,77.10
2022-08-27T20:01:52.761Z,79.10
2022-08-27T20:04:22.910Z,79.70
2022-08-27T20:06:52.940Z,81.70
2022-08-27T20:09:25.568Z,77.90
2022-08-27T20:11:56.006Z,75.20
2022-08-27T20:14:26.066Z,74.90
2022-08-27T20:16:53.204Z,75.10
2022-08-27T20:19:25.102Z,74.80
2022-08-27T20:21:53.261Z,74.30
2022-08-27T20:24:20.331Z,73.80
2022-08-27T20:26:51.166Z,73.90
2022-08-27T20:29:32.706Z,74.00
2022-08-27T20:32:04.203Z,73.90
2022-08-27T20:34:34.918Z,74.90
2022-08-27T20:37:03.027Z,75.80
2022-08-27T20:39:33.061Z,75.60
2022-08-27T20:42:02.702Z,78.40
2022-08-27T20:44:31.471Z,85.10
2022-08-27T20:47:02.437Z,83.40
2022-08-27T20:49:35.631Z,94.20
2022-08-27T20:52:05.905Z,96.70
2022-08-27T20:54:37.379Z,95.90
2022-08-27T20:57:08.740Z,97.00
2022-08-27T20:59:57.293Z,97.50
2022-08-27T21:02:30.106Z,96.20
2022-08-27T21:05:07.610Z,94.50
2022-08-27T21:07:34.911Z,95.70
2022-08-27T21:10:06.094Z,94.80
2022-08-27T21:15:08.694Z,88.20
2022-08-27T21:17:38.206Z,82.30
2022-08-27T21:20:11.229Z,86.00
2022-08-27T21:22:40.490Z,88.80
2022-08-27T21:25:11.858Z,83.10
2022-08-27T21:27:40.151Z,78.60
2022-08-27T21:30:11.534Z,77.00
2022-08-27T21:32:40.844Z,76.30
2022-08-27T21:35:08.662Z,74.80
2022-08-27T21:37:38.466Z,74.60
2022-08-27T21:40:07.181Z,74.80
2022-08-27T21:42:39.001Z,74.80
2022-08-27T21:45:06.717Z,75.20
2022-08-27T21:47:39.157Z,75.10
2022-08-27T21:50:10.132Z,75.00
2022-08-27T21:52:42.172Z,77.00
2022-08-27T21:57:40.350Z,77.70
2022-08-27T22:00:36.490Z,79.10
2022-08-27T22:03:04.821Z,80.10
2022-08-27T22:05:40.211Z,80.20
2022-08-27T22:08:12.237Z,80.30
2022-08-27T22:10:46.309Z,80.40
2022-08-27T22:13:14.566Z,82.50
2022-08-27T22:15:46.352Z,83.00
2022-08-27T22:18:23.040Z,83.70
2022-08-27T22:20:57.405Z,84.40
2022-08-27T22:23:27.790Z,85.10
2022-08-27T22:25:57.838Z,85.50
2022-08-27T22:28:27.437Z,85.60
2022-08-27T22:30:54.823Z,86.10
2022-08-27T22:33:27.258Z,86.40
2022-08-27T22:35:54.435Z,86.40
2022-08-27T22:38:24.323Z,86.70
2022-08-27T22:40:55.794Z,87.70
2022-08-27T22:43:23.661Z,89.30
2022-08-27T22:45:53.016Z,89.00
2022-08-27T22:48:20.470Z,89.10
2022-08-27T22:50:49.839Z,88.50
2022-08-27T22:53:17.028Z,87.90
2022-08-27T22:55:49.924Z,89.70
2022-08-27T22:58:18.240Z,90.40
2022-08-27T23:00:55.025Z,90.90
2022-08-27T23:03:27.358Z,91.30
2022-08-27T23:06:02.747Z,91.90
2022-08-27T23:08:31.842Z,92.40
2022-08-27T23:11:06.714Z,98.10
2022-08-27T23:13:36.502Z,94.50
2022-08-27T23:16:06.734Z,96.00
2022-08-27T23:18:36.825Z,96.20
2022-08-27T23:21:07.309Z,94.20
2022-08-27T23:23:42.106Z,94.70
2022-08-27T23:26:30.430Z,96.00
2022-08-27T23:28:58.282Z,97.30
2022-08-27T23:31:27.945Z,97.80
2022-08-27T23:33:57.633Z,99.90
2022-08-27T23:38:58.420Z,95.70
2022-08-27T23:41:26.338Z,96.20
2022-08-27T23:43:56.930Z,96.50
2022-08-27T23:46:31.730Z,97.10
2022-08-27T23:48:59.094Z,97.20
2022-08-27T23:51:28.721Z,98.00
2022-08-27T23:53:58.487Z,98.40
2022-08-27T23:56:30.005Z,99.60
2022-08-27T23:59:03.725Z,99.90
